Time;durP1;ratioP1;P1;durP2;ratioP2;P2;SDS_P1;SDS_P2;PMS_P1;PMS_P2;Temp;Humidity;BMP_temperature;BMP_pressure;BME280_temperature;BME280_humidity;BME280_pressure;Samples;Min_cycle;Max_cycle;Signal;HPM_P1;HPM_P2
2023/05/14 00:01:24;;;;;;;;;;;;;;;19.24;63.08;101547.63;7396496;19;1781;-45
2023/05/14 00:03:52;;;;;;;;;;;;;;;19.22;62.98;101545.06;7398869;19;1771;-45
2023/05/14 00:06:21;;;;;;;;;;;;;;;19.19;62.94;101544.44;7397899;19;1740;-45
2023/05/14 00:08:51;;;;;;;;;;;;;;;19.16;63.08;101528.56;7398610;19;1622;-45
2023/05/14 00:11:20;;;;;;;;;;;;;;;19.17;63.00;101532.97;7398118;19;1839;-45
2023/05/14 00:13:48;;;;;;;;;;;;;;;19.20;63.06;101522.88;7398117;19;1852;-45
2023/05/14 00:16:17;;;;;;;;;;;;;;;19.16;62.95;101529.44;7398329;19;1885;-45
2023/05/14 00:18:45;;;;;;;;;;;;;;;19.12;63.27;101527.09;7397562;19;1861;-45
2023/05/14 00:21:13;;;;;;;;;;;;;;;19.18;63.21;101542.69;7398119;19;1871;-45
2023/05/14 00:23:42;;;;;;;;;;;;;;;19.14;63.09;101519.78;7397522;19;1751;-45
2023/05/14 00:26:12;;;;;;;;;;;;;;;19.13;63.26;101528.81;7397049;19;1807;-45
2023/05/14 00:28:41;;;;;;;;;;;;;;;19.11;63.06;101520.03;7396020;19;1272;-45
2023/05/14 00:31:09;;;;;;;;;;;;;;;19.08;63.07;101521.97;7397041;19;1281;-45
2023/05/14 00:33:37;;;;;;;;;;;;;;;19.11;62.95;101512.00;7395391;19;1864;-45
2023/05/14 00:36:06;;;;;;;;;;;;;;;19.12;63.17;101532.44;7395633;19;1258;-45
2023/05/14 00:38:34;;;;;;;;;;;;;;;19.10;63.13;101512.94;7395954;19;1463;-45
2023/05/14 00:41:02;;;;;;;;;;;;;;;19.10;63.10;101524.56;7395888;19;1439;-45
2023/05/14 00:43:33;;;;;;;;;;;;;;;19.19;62.99;101517.63;7397037;19;1221;-45
2023/05/14 00:46:01;;;;;;;;;;;;;;;19.11;63.12;101514.69;7395766;19;1292;-45
2023/05/14 00:48:30;;;;;;;;;;;;;;;19.10;63.26;101537.06;7396001;19;1507;-45
2023/05/14 00:50:59;;;;;;;;;;;;;;;19.05;63.21;101506.13;7396224;19;1578;-45
2023/05/14 00:53:28;;;;;;;;;;;;;;;19.08;63.06;101513.94;7394899;19;1813;-45
2023/05/14 00:55:56;;;;;;;;;;;;;;;19.10;62.92;101512.94;7395820;19;1525;-45
2023/05/14 00:58:25;;;;;;;;;;;;;;;19.08;63.20;101495.16;7395304;19;1539;-45
2023/05/14 01:00:56;;;;;;;;;;;;;;;19.04;63.22;101507.09;7395886;19;1533;-45
2023/05/14 01:03:24;;;;;;;;;;;;;;;19.03;63.25;101501.84;7396195;19;1491;-46
2023/05/14 01:05:59;;;;;;;;;;;;;;;19.02;63.22;101505.50;7396108;19;1118;-45
2023/05/14 01:08:34;;;;;;;;;;;;;;;18.92;63.40;101518.78;7395179;19;1621;-45
2023/05/14 01:11:08;;;;;;;;;;;;;;;19.01;63.37;101512.69;7399468;19;1614;-45
2023/05/14 01:13:41;;;;;;;;;;;;;;;19.03;63.28;101507.22;7401482;19;1841;-45
2023/05/14 01:16:14;;;;;;;;;;;;;;;19.01;63.28;101510.00;7403748;19;1488;-45
2023/05/14 01:18:45;;;;;;;;;;;;;;;18.97;63.43;101497.81;7401994;19;1267;-45
2023/05/14 01:21:35;;;;;;;;;;;;;;;18.94;63.41;101495.38;7402824;19;1198;-45
2023/05/14 01:24:03;;;;;;;;;;;;;;;19.01;63.52;101501.97;7402506;19;1233;-45
2023/05/14 01:26:32;;;;;;;;;;;;;;;18.96;63.12;101514.00;7402764;19;1534;-47
2023/05/14 01:29:03;;;;;;;;;;;;;;;18.98;63.38;101493.31;7400651;19;1300;-47
2023/05/14 01:31:33;;;;;;;;;;;;;;;18.99;63.32;101495.03;7403252;19;1979;-48
2023/05/14 01:34:02;;;;;;;;;;;;;;;18.93;63.41;101496.34;7401358;19;1849;-44
2023/05/14 01:36:34;;;;;;;;;;;;;;;18.91;63.38;101487.56;7401407;19;1210;-45
2023/05/14 01:39:03;;;;;;;;;;;;;;;18.89;63.43;101494.88;7401823;19;1392;-47
2023/05/14 01:41:32;;;;;;;;;;;;;;;18.89;63.53;101481.47;7401257;19;1339;-47
2023/05/14 01:44:01;;;;;;;;;;;;;;;18.90;63.50;101483.19;7402424;19;1218;-47
2023/05/14 01:46:32;;;;;;;;;;;;;;;18.83;63.80;101506.06;7403098;19;1566;-47
2023/05/14 01:49:00;;;;;;;;;;;;;;;18.89;63.62;101505.59;7402004;19;1276;-45
2023/05/14 01:51:29;;;;;;;;;;;;;;;18.85;63.50;101499.59;7401517;19;1523;-45
2023/05/14 01:54:00;;;;;;;;;;;;;;;18.90;63.63;101496.59;7399583;19;1850;-44
2023/05/14 01:56:28;;;;;;;;;;;;;;;18.78;63.59;101498.34;7401407;19;1511;-45
2023/05/14 01:58:57;;;;;;;;;;;;;;;18.76;63.76;101494.94;7401269;19;1257;-47
2023/05/14 02:01:25;;;;;;;;;;;;;;;18.75;63.84;101505.75;7401023;19;1255;-45
2023/05/14 02:03:53;;;;;;;;;;;;;;;18.81;63.67;101505.31;7401735;19;1645;-47
2023/05/14 02:06:22;;;;;;;;;;;;;;;18.85;63.59;101513.00;7401602;19;1559;-45
2023/05/14 02:08:50;;;;;;;;;;;;;;;18.81;63.81;101502.66;7400792;19;1649;-44
2023/05/14 02:11:21;;;;;;;;;;;;;;;18.92;63.47;101500.00;7401046;19;1080;-45
2023/05/14 02:13:49;;;;;;;;;;;;;;;18.90;63.50;101504.63;7400330;19;1851;-45
2023/05/14 02:16:18;;;;;;;;;;;;;;;18.80;64.93;101500.91;7394099;19;1621;-51
2023/05/14 02:18:46;;;;;;;;;;;;;;;18.84;64.97;101489.88;7389357;19;1652;-51
2023/05/14 02:21:14;;;;;;;;;;;;;;;18.88;65.32;101503.91;7397871;19;1554;-50
2023/05/14 02:23:43;;;;;;;;;;;;;;;19.19;64.52;101491.66;7397578;19;1513;-50
2023/05/14 02:26:11;;;;;;;;;;;;;;;19.86;62.82;101487.34;7400005;19;1536;-50
2023/05/14 02:28:42;;;;;;;;;;;;;;;20.32;61.49;101475.50;7398738;19;1613;-52
2023/05/14 02:31:10;;;;;;;;;;;;;;;20.40;61.15;101480.25;7399434;19;1554;-51
2023/05/14 02:33:38;;;;;;;;;;;;;;;20.32;61.46;101480.88;7400156;19;1972;-51
2023/05/14 02:36:07;;;;;;;;;;;;;;;20.43;61.16;101482.66;7400334;19;1819;-50
2023/05/14 02:38:35;;;;;;;;;;;;;;;20.51;61.07;101485.56;7400293;19;1878;-52
2023/05/14 02:41:04;;;;;;;;;;;;;;;20.43;61.07;101478.19;7400116;19;1477;-52
2023/05/14 02:43:32;;;;;;;;;;;;;;;20.46;61.07;101490.50;7400684;19;1814;-50
2023/05/14 02:46:03;;;;;;;;;;;;;;;20.42;61.27;101476.44;7400974;19;1783;-49
2023/05/14 02:48:31;;;;;;;;;;;;;;;20.53;61.19;101494.38;7399888;19;1728;-50
2023/05/14 02:50:59;;;;;;;;;;;;;;;20.60;60.85;101495.59;7398359;19;1955;-50
2023/05/14 02:53:27;;;;;;;;;;;;;;;20.72;60.62;101523.28;7398329;19;1848;-49
2023/05/14 02:55:56;;;;;;;;;;;;;;;20.78;60.51;101492.34;7398599;19;1814;-50
2023/05/14 02:58:24;;;;;;;;;;;;;;;20.82;60.28;101497.31;7399737;19;1513;-52
2023/05/14 03:00:52;;;;;;;;;;;;;;;20.94;60.16;101492.75;7399520;19;1396;-50
2023/05/14 03:03:23;;;;;;;;;;;;;;;20.79;60.16;101484.16;7399768;19;1393;-50
2023/05/14 03:05:52;;;;;;;;;;;;;;;20.69;60.86;101498.50;7399421;19;1517;-50
2023/05/14 03:08:20;;;;;;;;;;;;;;;20.61;60.99;101507.19;7400392;19;1570;-50
2023/05/14 03:10:48;;;;;;;;;;;;;;;20.62;60.93;101506.22;7399785;19;1805;-50
2023/05/14 03:13:18;;;;;;;;;;;;;;;20.60;61.12;101500.97;7399930;19;1945;-49
2023/05/14 03:15:47;;;;;;;;;;;;;;;20.61;60.96;101501.81;7399076;19;1464;-50
2023/05/14 03:18:15;;;;;;;;;;;;;;;20.76;60.59;101507.75;7399421;19;1824;-50
2023/05/14 03:20:46;;;;;;;;;;;;;;;20.77;60.51;101504.06;7398586;19;1795;-50
2023/05/14 03:23:15;;;;;;;;;;;;;;;20.78;60.72;101511.16;7398255;19;1798;-50
2023/05/14 03:25:43;;;;;;;;;;;;;;;20.88;60.50;101485.19;7397943;19;1731;-50
2023/05/14 03:28:11;;;;;;;;;;;;;;;20.91;60.28;101492.16;7395713;19;1554;-50
2023/05/14 03:30:40;;;;;;;;;;;;;;;20.91;60.29;101493.03;7395390;19;1518;-50
2023/05/14 03:33:08;;;;;;;;;;;;;;;20.98;60.15;101488.81;7396613;19;1857;-50
2023/05/14 03:35:36;;;;;;;;;;;;;;;20.98;60.28;101498.72;7397504;19;1479;-52
2023/05/14 03:38:07;;;;;;;;;;;;;;;20.88;60.63;101497.81;7397085;19;1278;-51
2023/05/14 03:40:35;;;;;;;;;;;;;;;20.86;60.38;101492.53;7397986;19;1142;-52
2023/05/14 03:43:04;;;;;;;;;;;;;;;20.82;60.71;101493.78;7397858;19;1854;-52
2023/05/14 03:45:32;;;;;;;;;;;;;;;20.78;60.70;101498.56;7397280;19;1348;-52
2023/05/14 03:48:01;;;;;;;;;;;;;;;20.81;60.53;101495.63;7394737;19;1389;-51
2023/05/14 03:50:29;;;;;;;;;;;;;;;20.77;60.61;101496.88;7397114;19;1458;-52
2023/05/14 03:52:57;;;;;;;;;;;;;;;20.80;60.78;101501.13;7397223;19;1308;-52
2023/05/14 03:55:28;;;;;;;;;;;;;;;20.82;60.67;101496.47;7394727;19;1851;-52
2023/05/14 03:57:56;;;;;;;;;;;;;;;20.84;60.56;101510.63;7396092;19;1804;-52
2023/05/14 04:00:25;;;;;;;;;;;;;;;20.75;60.75;101504.22;7398978;19;949;-52
2023/05/14 04:02:53;;;;;;;;;;;;;;;20.49;61.36;101495.59;7397998;19;1601;-51
2023/05/14 04:05:21;;;;;;;;;;;;;;;20.27;61.77;101521.56;7397116;19;1645;-51
2023/05/14 04:07:51;;;;;;;;;;;;;;;20.34;61.64;101526.44;7396706;19;1854;-50
2023/05/14 04:10:19;;;;;;;;;;;;;;;20.36;61.54;101521.78;7396912;19;1787;-50
2023/05/14 04:12:50;;;;;;;;;;;;;;;20.33;61.59;101519.34;7396200;19;1719;-51
2023/05/14 04:15:18;;;;;;;;;;;;;;;20.25;61.80;101523.53;7395438;19;1845;-51
2023/05/14 04:17:47;;;;;;;;;;;;;;;20.25;61.70;101518.16;7397752;19;1739;-50
2023/05/14 04:20:15;;;;;;;;;;;;;;;20.14;62.08;101514.63;7397428;19;1795;-50
2023/05/14 04:22:43;;;;;;;;;;;;;;;20.20;61.96;101514.13;7397491;19;1723;-51
2023/05/14 04:25:12;;;;;;;;;;;;;;;20.23;61.90;101522.78;7396730;19;1454;-51
2023/05/14 04:27:40;;;;;;;;;;;;;;;20.21;61.95;101511.31;7395946;19;1542;-51
2023/05/14 04:30:12;;;;;;;;;;;;;;;20.27;61.44;101510.81;7394958;19;1574;-50
2023/05/14 04:32:40;;;;;;;;;;;;;;;20.22;61.58;101513.00;7395976;19;1585;-52
2023/05/14 04:35:09;;;;;;;;;;;;;;;20.22;61.73;101506.81;7395156;19;1857;-52
2023/05/14 04:37:37;;;;;;;;;;;;;;;20.16;61.63;101508.16;7397023;19;1867;-51
2023/05/14 04:40:06;;;;;;;;;;;;;;;20.10;61.97;101508.66;7396610;19;1844;-49
2023/05/14 04:42:35;;;;;;;;;;;;;;;20.09;61.91;101504.25;7396626;19;1795;-49
2023/05/14 04:45:04;;;;;;;;;;;;;;;20.08;61.87;101499.88;7400400;19;1822;-50
2023/05/14 04:47:34;;;;;;;;;;;;;;;20.06;62.05;101507.19;7402641;19;1403;-50
2023/05/14 04:50:03;;;;;;;;;;;;;;;20.01;62.08;101504.88;7404510;19;1396;-49
2023/05/14 04:52:31;;;;;;;;;;;;;;;20.04;62.18;101490.34;7404018;19;1819;-50
2023/05/14 04:54:59;;;;;;;;;;;;;;;20.01;62.10;101504.88;7402104;19;1854;-50
2023/05/14 04:57:28;;;;;;;;;;;;;;;20.03;62.00;101502.06;7402790;19;1828;-50
2023/05/14 04:59:56;;;;;;;;;;;;;;;20.00;61.94;101491.59;7403878;19;1490;-50
2023/05/14 05:02:24;;;;;;;;;;;;;;;19.81;62.58;101508.31;7403327;19;1316;-50
2023/05/14 05:04:55;;;;;;;;;;;;;;;19.71;62.91;101521.59;7403270;19;1221;-50
2023/05/14 05:07:24;;;;;;;;;;;;;;;19.46;63.64;101525.34;7403407;19;1613;-50
2023/05/14 05:09:52;;;;;;;;;;;;;;;19.35;64.22;101512.75;7402651;19;1285;-50
2023/05/14 05:12:20;;;;;;;;;;;;;;;19.35;64.20;101517.28;7403008;19;1636;-50
2023/05/14 05:14:48;;;;;;;;;;;;;;;19.32;64.25;101523.75;7401657;19;1859;-50
2023/05/14 05:17:17;;;;;;;;;;;;;;;19.32;64.25;101523.75;7402959;19;1390;-50
2023/05/14 05:19:45;;;;;;;;;;;;;;;19.40;63.81;101515.94;7403184;19;1681;-50
2023/05/14 05:22:16;;;;;;;;;;;;;;;19.57;63.39;101525.34;7402274;19;1692;-49
2023/05/14 05:24:44;;;;;;;;;;;;;;;19.57;63.52;101513.75;7403187;19;1447;-50
2023/05/14 05:27:13;;;;;;;;;;;;;;;19.61;63.39;101507.19;7403998;19;1069;-53
2023/05/14 05:29:41;;;;;;;;;;;;;;;19.55;63.61;101518.41;7400145;19;1870;-52
2023/05/14 05:32:09;;;;;;;;;;;;;;;19.44;63.76;101506.69;7403568;19;1578;-52
2023/05/14 05:34:38;;;;;;;;;;;;;;;19.57;63.60;101511.09;7401814;19;1868;-52
2023/05/14 05:37:08;;;;;;;;;;;;;;;19.58;63.51;101505.59;7402887;19;1700;-50
2023/05/14 05:39:38;;;;;;;;;;;;;;;19.73;62.99;101503.56;7403240;19;1792;-50
2023/05/14 05:42:07;;;;;;;;;;;;;;;19.68;62.96;101509.25;7402499;19;1853;-52
2023/05/14 05:44:36;;;;;;;;;;;;;;;19.61;63.89;101507.19;7402005;19;1503;-49
2023/05/14 05:47:04;;;;;;;;;;;;;;;19.66;65.64;101510.38;7403045;19;1593;-51
2023/05/14 05:49:32;;;;;;;;;;;;;;;19.57;65.07;101521.81;7401533;19;1185;-50
2023/05/14 05:52:01;;;;;;;;;;;;;;;19.60;64.56;101559.16;7401428;19;1635;-50
2023/05/14 05:54:31;;;;;;;;;;;;;;;19.50;65.26;101528.63;7401483;19;1843;-50
2023/05/14 05:57:01;;;;;;;;;;;;;;;19.63;65.97;101521.31;7399741;19;1941;-53
2023/05/14 05:59:30;;;;;;;;;;;;;;;19.57;66.07;101524.50;7401740;19;1975;-51
2023/05/14 06:01:58;;;;;;;;;;;;;;;19.62;65.78;101523.16;7401627;19;1697;-53
2023/05/14 06:04:26;;;;;;;;;;;;;;;19.53;65.77;101531.09;7400322;19;1454;-49
2023/05/14 06:06:55;;;;;;;;;;;;;;;19.54;66.10;101539.00;7402202;19;1293;-51
2023/05/14 06:09:23;;;;;;;;;;;;;;;19.55;66.42;101551.44;7400920;19;1601;-50
2023/05/14 06:11:51;;;;;;;;;;;;;;;19.58;66.76;101540.47;7400160;19;1613;-50
2023/05/14 06:14:22;;;;;;;;;;;;;;;19.70;66.17;101538.66;7400187;19;1862;-50
2023/05/14 06:16:51;;;;;;;;;;;;;;;19.71;66.26;101540.38;7401542;19;1382;-51
2023/05/14 06:19:19;;;;;;;;;;;;;;;19.72;66.47;101539.44;7401047;19;1550;-51
2023/05/14 06:21:47;;;;;;;;;;;;;;;19.76;65.97;101538.22;7402312;19;1262;-51
2023/05/14 06:24:16;;;;;;;;;;;;;;;19.85;65.53;101545.50;7402058;19;1873;-51
2023/05/14 06:26:44;;;;;;;;;;;;;;;19.71;66.12;101540.38;7400821;19;1819;-50
2023/05/14 06:29:12;;;;;;;;;;;;;;;19.79;66.23;101543.31;7397629;19;1547;-50
2023/05/14 06:31:43;;;;;;;;;;;;;;;19.65;66.81;101543.53;7402255;19;965;-50
2023/05/14 06:34:11;;;;;;;;;;;;;;;19.60;66.72;101543.06;7400042;19;1854;-50
2023/05/14 06:36:40;;;;;;;;;;;;;;;19.66;66.79;101542.56;6880533;19;9999857;-52
2023/05/14 06:39:08;;;;;;;;;;;;;;;19.65;66.67;101541.69;7395485;19;1159;-53
2023/05/14 06:41:36;;;;;;;;;;;;;;;19.71;65.74;101529.66;7394230;19;1815;-53
2023/05/14 06:44:05;;;;;;;;;;;;;;;19.74;65.89;101529.44;7393797;19;1861;-52
2023/05/14 06:46:33;;;;;;;;;;;;;;;19.73;66.45;101546.47;7392511;19;1812;-53
2023/05/14 06:49:04;;;;;;;;;;;;;;;19.67;66.08;101533.53;7394559;19;1696;-51
2023/05/14 06:51:33;;;;;;;;;;;;;;;19.74;66.02;101539.31;7393801;19;1791;-51
2023/05/14 06:54:01;;;;;;;;;;;;;;;19.71;65.85;101532.34;7393077;19;1529;-51
2023/05/14 06:56:29;;;;;;;;;;;;;;;19.76;65.86;101537.38;7393878;19;1840;-51
2023/05/14 06:58:58;;;;;;;;;;;;;;;19.80;65.87;101517.34;7396803;19;1641;-52
2023/05/14 07:01:26;;;;;;;;;;;;;;;19.89;65.91;101537.22;7395890;19;1194;-51
2023/05/14 07:03:54;;;;;;;;;;;;;;;19.87;65.85;101529.28;7386072;19;1553;-51
2023/05/14 07:06:25;;;;;;;;;;;;;;;19.90;65.89;101529.06;7394658;19;1535;-51
2023/05/14 07:08:53;;;;;;;;;;;;;;;19.76;66.08;101524.78;7393245;19;975;-51
2023/05/14 07:11:22;;;;;;;;;;;;;;;19.75;66.24;101535.63;7398432;19;1989;-52
2023/05/14 07:13:50;;;;;;;;;;;;;;;19.76;66.31;101538.22;7396822;19;1815;-52
2023/05/14 07:16:19;;;;;;;;;;;;;;;19.71;66.13;101529.66;7395617;19;1893;-52
2023/05/14 07:18:47;;;;;;;;;;;;;;;19.70;66.19;101538.66;7398695;19;1795;-53
2023/05/14 07:21:16;;;;;;;;;;;;;;;19.75;65.81;101541.84;7397902;19;1407;-53
2023/05/14 07:23:47;;;;;;;;;;;;;;;19.82;65.63;101532.34;7397819;19;1811;-52
2023/05/14 07:26:15;;;;;;;;;;;;;;;19.85;65.53;101540.13;7398821;19;1660;-50
2023/05/14 07:28:44;;;;;;;;;;;;;;;19.84;65.42;101543.81;7396337;19;1110;-51
2023/05/14 07:31:12;;;;;;;;;;;;;;;19.85;65.67;101548.19;7397830;19;1938;-54
2023/05/14 07:33:40;;;;;;;;;;;;;;;19.77;65.94;101542.59;7393140;19;1431;-51
2023/05/14 07:36:09;;;;;;;;;;;;;;;19.70;65.76;101544.03;7395291;19;1860;-52
2023/05/14 07:38:37;;;;;;;;;;;;;;;19.71;66.34;101540.38;7395189;19;1402;-52
2023/05/14 07:41:10;;;;;;;;;;;;;;;19.74;66.09;101526.75;7394893;19;1285;-51
2023/05/14 07:43:39;;;;;;;;;;;;;;;19.74;65.31;101518.69;7394691;19;1585;-51
2023/05/14 07:46:07;;;;;;;;;;;;;;;19.65;65.82;101514.84;7396523;19;1423;-52
2023/05/14 07:48:35;;;;;;;;;;;;;;;19.73;65.73;101516.97;7395889;19;1530;-51
2023/05/14 07:51:04;;;;;;;;;;;;;;;19.69;65.77;101515.47;7395352;19;1198;-51
2023/05/14 07:53:32;;;;;;;;;;;;;;;19.73;65.55;101514.28;7395546;19;1614;-52
2023/05/14 07:56:01;;;;;;;;;;;;;;;19.90;64.89;101533.59;7394710;19;1853;-52
2023/05/14 07:58:32;;;;;;;;;;;;;;;19.95;64.60;101531.34;7395598;19;1288;-52
2023/05/14 08:01:02;;;;;;;;;;;;;;;19.89;64.89;101523.81;7396168;19;1519;-52
2023/05/14 08:03:30;;;;;;;;;;;;;;;19.91;64.27;101529.91;7395452;19;1474;-52
2023/05/14 08:05:59;;;;;;;;;;;;;;;19.73;64.04;101511.59;7394593;19;1680;-52
2023/05/14 08:08:27;;;;;;;;;;;;;;;19.74;64.81;101521.38;7396136;19;1543;-52
2023/05/14 08:10:55;;;;;;;;;;;;;;;19.73;64.90;101525.03;7397497;19;1854;-52
2023/05/14 08:13:24;;;;;;;;;;;;;;;19.76;64.87;101522.09;7395465;19;1338;-51
2023/05/14 08:15:55;;;;;;;;;;;;;;;19.75;64.96;101525.75;7395622;19;1845;-55
2023/05/14 08:18:23;;;;;;;;;;;;;;;19.81;64.42;101516.34;7396288;19;1852;-52
2023/05/14 08:20:52;;;;;;;;;;;;;;;19.92;63.87;101531.63;7395376;19;1484;-51
2023/05/14 08:23:21;;;;;;;;;;;;;;;19.87;64.17;101529.28;7396085;19;1775;-53
2023/05/14 08:25:49;;;;;;;;;;;;;;;19.74;64.54;101524.06;7397504;19;1059;-52
2023/05/14 08:28:17;;;;;;;;;;;;;;;19.83;64.43;101534.03;7395049;19;1835;-51
2023/05/14 08:30:49;;;;;;;;;;;;;;;19.85;64.43;101537.47;7393699;19;1574;-52
2023/05/14 08:33:20;;;;;;;;;;;;;;;19.78;64.53;101520.16;7393809;19;1590;-52
2023/05/14 08:35:48;;;;;;;;;;;;;;;19.77;65.01;101539.91;7391062;19;1857;-52
2023/05/14 08:38:16;;;;;;;;;;;;;;;19.74;65.40;101539.31;7393924;19;1386;-53
2023/05/14 08:40:48;;;;;;;;;;;;;;;19.71;65.47;101536.81;7393303;19;1428;-53
2023/05/14 08:43:21;;;;;;;;;;;;;;;19.73;65.29;101538.44;7394148;19;1515;-52
2023/05/14 08:45:51;;;;;;;;;;;;;;;19.65;65.65;101511.31;7395386;19;1131;-52
2023/05/14 08:48:24;;;;;;;;;;;;;;;19.77;65.55;101542.59;7394553;19;1491;-53
2023/05/14 08:50:53;;;;;;;;;;;;;;;19.77;65.82;101539.06;7392626;19;1793;-53
2023/05/14 08:53:21;;;;;;;;;;;;;;;19.80;65.90;101542.34;7394774;19;1479;-52
2023/05/14 08:55:52;;;;;;;;;;;;;;;19.80;65.92;101533.47;7393900;19;1887;-52
2023/05/14 08:58:20;;;;;;;;;;;;;;;19.85;66.06;101544.66;7394678;19;1826;-55
2023/05/14 09:00:49;;;;;;;;;;;;;;;19.81;66.03;101525.25;7395084;19;1625;-53
2023/05/14 09:03:18;;;;;;;;;;;;;;;19.83;66.13;101517.94;7391557;19;1893;-52
2023/05/14 09:05:50;;;;;;;;;;;;;;;19.77;66.20;101518.44;7394028;19;1676;-49
2023/05/14 09:08:18;;;;;;;;;;;;;;;19.81;65.53;101501.09;7396033;19;1027;-50
2023/05/14 09:10:47;;;;;;;;;;;;;;;19.83;65.40;101512.56;7395111;19;1906;-50
2023/05/14 09:13:15;;;;;;;;;;;;;;;19.81;65.51;101519.88;7390371;19;1593;-50
2023/05/14 09:15:45;;;;;;;;;;;;;;;19.70;66.04;101509.16;7392777;19;1822;-53
2023/05/14 09:18:13;;;;;;;;;;;;;;;19.68;65.92;101524.50;7395765;19;1032;-51
2023/05/14 09:20:41;;;;;;;;;;;;;;;19.66;65.71;101511.22;7391126;19;1801;-50
2023/05/14 09:23:12;;;;;;;;;;;;;;;19.65;65.81;101501.44;7391712;19;1764;-49
2023/05/14 09:25:40;;;;;;;;;;;;;;;19.68;65.86;101509.25;7392323;19;1285;-49
2023/05/14 09:28:10;;;;;;;;;;;;;;;19.66;65.53;101511.22;7391052;19;1352;-52
2023/05/14 09:30:39;;;;;;;;;;;;;;;19.66;65.03;101510.38;7393756;19;1346;-50
2023/05/14 09:33:09;;;;;;;;;;;;;;;19.65;65.45;101517.53;7396465;19;1308;-49
2023/05/14 09:35:40;;;;;;;;;;;;;;;19.61;65.56;101520.59;7399727;19;1860;-50
2023/05/14 09:38:09;;;;;;;;;;;;;;;19.60;65.14;101522.44;7401809;19;1478;-49
2023/05/14 09:40:40;;;;;;;;;;;;;;;19.55;65.31;101521.09;7402247;19;1229;-49
2023/05/14 09:43:10;;;;;;;;;;;;;;;19.52;64.80;101526.69;7401667;19;1535;-50
2023/05/14 09:45:38;;;;;;;;;;;;;;;19.51;63.85;101516.94;7399866;19;1479;-49
2023/05/14 09:48:07;;;;;;;;;;;;;;;19.52;63.55;101524.00;7401669;19;1822;-50
2023/05/14 09:50:43;;;;;;;;;;;;;;;19.48;63.47;101526.94;7400356;19;1236;-50
2023/05/14 09:53:11;;;;;;;;;;;;;;;19.51;63.39;101527.66;7401083;19;1241;-50
2023/05/14 09:55:42;;;;;;;;;;;;;;;19.54;62.74;101524.75;7398036;19;1863;-52
2023/05/14 09:58:12;;;;;;;;;;;;;;;19.52;63.12;101524.00;7397323;19;1981;-49
2023/05/14 10:00:41;;;;;;;;;;;;;;;19.56;63.03;101517.44;7398519;19;1405;-49
2023/05/14 10:03:09;;;;;;;;;;;;;;;19.59;63.10;101514.50;7401204;19;1395;-49
2023/05/14 10:05:38;;;;;;;;;;;;;;;19.53;63.28;101525.72;7399455;19;1752;-49
2023/05/14 10:08:10;;;;;;;;;;;;;;;19.57;62.83;101521.81;7400416;19;1736;-52
2023/05/14 10:10:39;;;;;;;;;;;;;;;19.46;63.33;101518.16;7398762;19;1320;-51
2023/05/14 10:13:15;;;;;;;;;;;;;;;19.67;62.02;101506.69;7398012;19;1351;-50
2023/05/14 10:15:48;;;;;;;;;;;;;;;19.55;62.70;101526.44;7396702;19;1869;-49
2023/05/14 10:18:19;;;;;;;;;;;;;;;19.50;62.98;101528.63;7399624;19;1483;-52
2023/05/14 10:20:50;;;;;;;;;;;;;;;19.60;62.89;101519.75;7397928;19;1209;-51
2023/05/14 10:23:18;;;;;;;;;;;;;;;19.51;63.15;101517.78;7397083;19;1352;-48
2023/05/14 10:25:47;;;;;;;;;;;;;;;19.50;63.05;101512.53;7398596;19;1538;-51
2023/05/14 10:28:18;;;;;;;;;;;;;;;19.47;62.90;101510.94;7394324;19;1427;-50
2023/05/14 10:30:48;;;;;;;;;;;;;;;19.45;62.86;101505.69;7396198;19;1352;-52
2023/05/14 10:33:17;;;;;;;;;;;;;;;19.50;63.02;101483.03;7394829;19;1257;-51
2023/05/14 10:35:58;;;;;;;;;;;;;;;19.47;62.76;101479.59;7398567;19;1841;-50
2023/05/14 10:38:31;;;;;;;;;;;;;;;19.47;63.27;101493.03;7399700;19;992;-53
2023/05/14 10:41:03;;;;;;;;;;;;;;;19.57;62.74;101479.72;7398053;19;1854;-50
2023/05/14 10:43:39;;;;;;;;;;;;;;;19.72;61.06;101461.59;7397587;19;1518;-50
2023/05/14 10:46:08;;;;;;;;;;;;;;;19.82;61.28;101467.94;7396413;19;1910;-50
2023/05/14 10:48:38;;;;;;;;;;;;;;;19.48;58.61;101469.75;7399068;19;1826;-50
2023/05/14 10:51:08;;;;;;;;;;;;;;;19.52;59.93;101449.75;7396541;19;1210;-50
2023/05/14 10:53:37;;;;;;;;;;;;;;;19.77;59.18;101454.03;7398250;19;1467;-50
2023/05/14 10:56:07;;;;;;;;;;;;;;;19.83;59.25;101441.94;7397656;19;1842;-51
2023/05/14 10:58:40;;;;;;;;;;;;;;;19.63;59.76;101448.88;7397677;19;1602;-50
2023/05/14 11:01:09;;;;;;;;;;;;;;;19.62;60.03;101434.63;7397583;19;1557;-50
2023/05/14 11:03:43;;;;;;;;;;;;;;;19.60;60.15;101438.41;7397156;19;1542;-50
2023/05/14 11:06:12;;;;;;;;;;;;;;;19.39;60.46;101427.56;7397048;19;1562;-50
2023/05/14 11:08:41;;;;;;;;;;;;;;;19.42;60.34;101400.50;7397350;19;1479;-51
2023/05/14 11:11:10;;;;;;;;;;;;;;;19.45;60.89;101394.88;7394981;19;1414;-50
2023/05/14 11:13:41;;;;;;;;;;;;;;;19.62;60.85;101386.34;7395735;19;961;-50
2023/05/14 11:16:09;;;;;;;;;;;;;;;19.53;60.65;101386.22;7394438;19;1852;-50
2023/05/14 11:18:40;;;;;;;;;;;;;;;19.37;61.45;101397.31;7396813;19;1558;-50
2023/05/14 11:21:09;;;;;;;;;;;;;;;19.25;61.75;101397.31;7397142;19;1529;-50
2023/05/14 11:23:37;;;;;;;;;;;;;;;19.25;62.12;101408.03;7396028;19;1444;-50
2023/05/14 11:26:05;;;;;;;;;;;;;;;19.22;62.17;101410.13;7396695;19;1744;-50
2023/05/14 11:28:34;;;;;;;;;;;;;;;19.26;61.45;101425.00;7394653;19;1768;-49
2023/05/14 11:31:05;;;;;;;;;;;;;;;19.33;61.59;101412.81;7396410;19;1739;-49
2023/05/14 11:33:33;;;;;;;;;;;;;;;19.36;60.92;101396.47;7392109;19;1692;-49
2023/05/14 11:36:02;;;;;;;;;;;;;;;19.43;57.09;101394.16;7395363;19;1850;-49
2023/05/14 11:38:30;;;;;;;;;;;;;;;19.56;58.73;101407.44;7398203;19;1156;-49
2023/05/14 11:40:59;;;;;;;;;;;;;;;19.54;58.98;101430.88;7397873;19;1094;-50
2023/05/14 11:43:28;;;;;;;;;;;;;;;19.44;59.61;101428.91;7393090;19;1608;-50
2023/05/14 11:45:56;;;;;;;;;;;;;;;19.56;58.92;101386.81;7395940;19;1487;-49
2023/05/14 11:48:27;;;;;;;;;;;;;;;19.56;55.95;101399.41;7394021;19;1380;-49
2023/05/14 11:50:56;;;;;;;;;;;;;;;19.68;56.55;101388.50;7394534;19;1238;-49
2023/05/14 11:53:27;;;;;;;;;;;;;;;19.64;58.40;101380.84;7394291;19;1582;-49
2023/05/14 11:55:56;;;;;;;;;;;;;;;19.70;56.02;101376.81;7393522;19;1864;-50
2023/05/14 11:58:25;;;;;;;;;;;;;;;19.83;56.87;101399.00;7394024;19;1417;-50
2023/05/14 12:00:54;;;;;;;;;;;;;;;19.67;58.12;101394.00;7393646;19;1217;-49
2023/05/14 12:03:24;;;;;;;;;;;;;;;19.60;58.43;101392.81;7394069;19;1503;-50
2023/05/14 12:06:02;;;;;;;;;;;;;;;19.61;58.92;101373.03;7395834;19;1602;-49
2023/05/14 12:08:31;;;;;;;;;;;;;;;19.57;56.40;101360.84;7395859;19;1322;-49
2023/05/14 12:10:59;;;;;;;;;;;;;;;19.54;58.07;101343.19;7393002;19;1419;-56
2023/05/14 12:13:28;;;;;;;;;;;;;;;19.55;56.90;101352.91;7390808;19;1626;-55
2023/05/14 12:15:57;;;;;;;;;;;;;;;19.60;57.97;101360.63;7394913;19;1328;-56
2023/05/14 12:18:26;;;;;;;;;;;;;;;19.70;56.72;101356.19;7395652;19;1862;-55
2023/05/14 12:20:54;;;;;;;;;;;;;;;19.82;57.08;101357.91;7395488;19;1645;-54
2023/05/14 12:23:29;;;;;;;;;;;;;;;19.87;57.85;101352.13;7397276;19;1620;-54
2023/05/14 12:26:02;;;;;;;;;;;;;;;19.89;57.69;101322.50;7399015;19;1063;-55
2023/05/14 12:28:31;;;;;;;;;;;;;;;19.79;58.75;101312.50;7396879;19;1851;-55
2023/05/14 12:30:59;;;;;;;;;;;;;;;19.71;56.63;101298.88;7396976;19;1549;-58
2023/05/14 12:33:28;;;;;;;;;;;;;;;19.74;56.27;101314.75;7398253;19;1063;-55
2023/05/14 12:36:00;;;;;;;;;;;;;;;19.76;57.11;101320.00;7395033;19;1206;-56
2023/05/14 12:38:33;;;;;;;;;;;;;;;19.71;57.77;101308.75;7393129;19;1838;-56
2023/05/14 12:41:01;;;;;;;;;;;;;;;19.73;55.73;101313.03;7393924;19;1550;-55
2023/05/14 12:43:31;;;;;;;;;;;;;;;19.67;57.24;101314.34;7393317;19;1214;-56
2023/05/14 12:45:59;;;;;;;;;;;;;;;19.68;55.98;101299.13;7393849;19;1613;-55
2023/05/14 12:48:27;;;;;;;;;;;;;;;19.74;56.77;101298.63;7394937;19;1526;-56
2023/05/14 12:50:55;;;;;;;;;;;;;;;19.80;57.88;101286.56;7394219;19;1180;-55
2023/05/14 12:53:24;;;;;;;;;;;;;;;19.79;57.81;101285.69;7392075;19;1537;-56
2023/05/14 12:55:56;;;;;;;;;;;;;;;19.82;55.86;101285.44;7390819;19;1221;-54
2023/05/14 12:58:24;;;;;;;;;;;;;;;19.79;56.73;101290.19;7388639;19;1862;-56